| time (UTC) | temp F | wind direction | speed MPH | gust MPH | rain 1hr in | rain 24hr in | rain mn in | humidity % | barometer mb |
| 20260508121503 | 67 | 7 | 2.0 | 6.0 | 0.00 | 0.00 | 0.00 | 56 | 1008.9 |
| 20260508120003 | 67 | 339 | 2.0 | 9.0 | 0.00 | 0.00 | 0.00 | 59 | 1009.4 |
| 20260508114503 | 65 | 359 | 3.0 | 8.0 | 0.00 | 0.00 | 0.00 | 59 | 1009.4 |
| 20260508113004 | 68 | 29 | 3.0 | 11.0 | 0.00 | 0.00 | 0.00 | 56 | 1009.7 |
| 20260508111503 | 69 | 143 | 2.0 | 8.0 | 0.00 | 0.00 | 0.00 | 56 | 1009.9 |
| 20260508110003 | 67 | 10 | 2.0 | 8.0 | 0.00 | 0.00 | 0.00 | 56 | 1009.9 |
| 20260508104503 | 67 | 31 | 2.0 | 7.0 | 0.00 | 0.00 | 0.00 | 58 | 1010.2 |
| 20260508103003 | 66 | 16 | 2.0 | 6.0 | 0.00 | 0.00 | 0.00 | 60 | 1010.2 |
| 20260508101503 | 66 | 41 | 1.0 | 6.0 | 0.00 | 0.00 | 0.00 | 61 | 1010.2 |
| 20260508100004 | 64 | 26 | 1.0 | 7.0 | 0.00 | 0.00 | 0.00 | 62 | 1010.4 |
| 20260508094503 | 64 | 12 | 2.0 | 6.0 | 0.00 | 0.00 | 0.00 | 65 | 1010.4 |
| 20260508093003 | 62 | 30 | 2.0 | 7.0 | 0.00 | 0.00 | 0.00 | 69 | 1010.5 |
| 20260508091503 | 62 | 54 | 2.0 | 7.0 | 0.00 | 0.00 | 0.00 | 72 | 1010.5 |
| 20260508090003 | 61 | 11 | 1.0 | 4.0 | 0.00 | 0.00 | 0.00 | 75 | 1010.5 |
| 20260508084503 | 59 | 335 | 2.0 | 7.0 | 0.00 | 0.00 | 0.00 | 80 | 1010.4 |
| 20260508083003 | 59 | 343 | 2.0 | 6.0 | 0.00 | 0.00 | 0.00 | 81 | 1010.5 |
| 20260508081503 | 58 | 360 | 1.0 | 4.0 | 0.00 | 0.00 | 0.00 | 87 | 1010.6 |
| 20260508080004 | 56 | 24 | 1.0 | 6.0 | 0.00 | 0.00 | 0.00 | 92 | 1010.5 |
| 20260508074503 | 56 | 345 | 0.0 | 4.0 | 0.00 | 0.00 | 0.00 | 93 | 1010.5 |
| 20260508073003 | 54 | 0 | 0.0 | 0.0 | 0.00 | 0.00 | 0.00 | 93 | 1010.4 |
| 20260508071503 | 53 | 58 | 0.0 | 2.0 | 0.00 | 0.00 | 0.00 | 91 | 1010.4 |
| 20260508070003 | 54 | 36 | 0.0 | 4.0 | 0.00 | 0.00 | 0.00 | 88 | 1010.3 |
| 20260508064503 | 54 | 0 | 0.0 | 0.0 | 0.00 | 0.00 | 0.00 | 87 | 1010.2 |
| 20260508063003 | 53 | 0 | 0.0 | 0.0 | 0.00 | 0.00 | 0.00 | 87 | 1009.8 |
| 20260508061503 | 53 | 0 | 0.0 | 0.0 | 0.00 | 0.00 | 0.00 | 87 | 1009.8 |
| 20260508060003 | 53 | 0 | 0.0 | 0.0 | 0.00 | 0.00 | 0.00 | 86 | 1009.3 |
| 20260508054503 | 53 | 0 | 0.0 | 0.0 | 0.00 | 0.00 | 0.00 | 86 | 1009.4 |
| 20260508053003 | 53 | 0 | 0.0 | 0.0 | 0.00 | 0.00 | 0.00 | 86 | 1009.2 |
| 20260508051503 | 53 | 0 | 0.0 | 0.0 | 0.00 | 0.00 | 0.00 | 85 | 1008.8 |
| 20260508050003 | 53 | 67 | 0.0 | 2.0 | 0.00 | 0.00 | 0.00 | 84 | 1009.2 |
| 20260508044503 | 53 | 0 | 0.0 | 2.0 | 0.00 | 0.00 | 0.00 | 83 | 1009.2 |
| 20260508043003 | 54 | 45 | 0.0 | 2.0 | 0.00 | 0.00 | 0.00 | 83 | 1009.2 |
| 20260508041504 | 54 | 79 | 0.0 | 2.0 | 0.00 | 0.00 | 0.00 | 83 | 1009.2 |
| 20260508040003 | 54 | 45 | 0.0 | 2.0 | 0.00 | 0.00 | 0.00 | 82 | 1009.2 |
| 20260508034503 | 54 | 76 | 0.0 | 2.0 | 0.00 | 0.00 | 0.00 | 82 | 1008.9 |
| 20260508033003 | 54 | 0 | 0.0 | 0.0 | 0.00 | 0.00 | 0.00 | 82 | 1009.1 |
| 20260508031503 | 54 | 0 | 0.0 | 2.0 | 0.00 | 0.00 | 0.00 | 83 | 1009.3 |
| 20260508030003 | 54 | 67 | 0.0 | 2.0 | 0.00 | 0.00 | 0.00 | 83 | 1009.3 |
| 20260508024503 | 54 | 0 | 0.0 | 0.0 | 0.00 | 0.00 | 0.00 | 83 | 1009.2 |
| 20260508023003 | 54 | 0 | 0.0 | 0.0 | 0.00 | 0.00 | 0.00 | 82 | 1009.7 |
| 20260508021503 | 54 | 0 | 0.0 | 2.0 | 0.00 | 0.00 | 0.00 | 82 | 1009.5 |
| 20260508020003 | 54 | 85 | 0.0 | 2.0 | 0.00 | 0.00 | 0.00 | 82 | 1009.3 |
| 20260508014503 | 54 | 100 | 1.0 | 2.0 | 0.00 | 0.00 | 0.00 | 81 | 1009.9 |
| 20260508013003 | 54 | 97 | 1.0 | 4.0 | 0.00 | 0.00 | 0.00 | 81 | 1009.9 |
| 20260508011503 | 54 | 84 | 1.0 | 4.0 | 0.00 | 0.00 | 0.00 | 82 | 1009.9 |
| 20260508010003 | 54 | 91 | 1.0 | 2.0 | 0.00 | 0.00 | 0.00 | 82 | 1010.1 |
| 20260508004503 | 54 | 97 | 0.0 | 4.0 | 0.00 | 0.00 | 0.00 | 82 | 1010.0 |
| 20260508003003 | 54 | 0 | 0.0 | 0.0 | 0.00 | 0.00 | 0.00 | 82 | 1009.9 |
| 20260508001503 | 54 | 0 | 0.0 | 0.0 | 0.00 | 0.00 | 0.00 | 81 | 1010.3 |
| 20260508000003 | 54 | 0 | 0.0 | 0.0 | 0.00 | 0.00 | 0.00 | 81 | 1010.4 |
| 20260507234503 | 54 | 60 | 0.0 | 2.0 | 0.00 | 0.00 | 0.00 | 82 | 1010.5 |
| 20260507233003 | 55 | 0 | 0.0 | 0.0 | 0.00 | 0.00 | 0.00 | 81 | 1010.5 |
| 20260507231503 | 55 | 0 | 0.0 | 0.0 | 0.00 | 0.00 | 0.00 | 81 | 1010.5 |
| 20260507230004 | 55 | 0 | 0.0 | 0.0 | 0.00 | 0.00 | 0.00 | 80 | 1010.5 |
| 20260507224504 | 56 | 0 | 0.0 | 0.0 | 0.00 | 0.00 | 0.00 | 80 | 1010.9 |
| 20260507223003 | 56 | 0 | 0.0 | 2.0 | 0.00 | 0.00 | 0.00 | 79 | 1011.0 |
| 20260507221503 | 56 | 105 | 0.0 | 2.0 | 0.00 | 0.00 | 0.00 | 79 | 1011.1 |
| 20260507220003 | 56 | 106 | 0.0 | 2.0 | 0.00 | 0.00 | 0.00 | 79 | 1011.2 |
| 20260507214503 | 56 | 112 | 1.0 | 4.0 | 0.00 | 0.00 | 0.00 | 78 | 1011.3 |
| 20260507213003 | 57 | 107 | 1.0 | 4.0 | 0.00 | 0.00 | 0.00 | 78 | 1011.5 |
| 20260507211503 | 57 | 103 | 2.0 | 4.0 | 0.00 | 0.00 | 0.00 | 78 | 1011.5 |
| 20260507210004 | 57 | 123 | 2.0 | 6.0 | 0.00 | 0.00 | 0.00 | 78 | 1011.3 |
| 20260507204503 | 57 | 105 | 3.0 | 7.0 | 0.00 | 0.00 | 0.00 | 77 | 1011.2 |
| 20260507203003 | 57 | 119 | 2.0 | 7.0 | 0.00 | 0.00 | 0.00 | 77 | 1011.1 |
| 20260507201503 | 58 | 122 | 2.0 | 6.0 | 0.00 | 0.00 | 0.00 | 77 | 1010.7 |
| 20260507200003 | 58 | 135 | 3.0 | 9.0 | 0.00 | 0.00 | 0.00 | 76 | 1010.7 |
| 20260507194503 | 58 | 117 | 4.0 | 8.0 | 0.00 | 0.00 | 0.00 | 75 | 1010.4 |
| 20260507193003 | 59 | 117 | 4.0 | 8.0 | 0.00 | 0.00 | 0.00 | 73 | 1010.3 |
| 20260507191503 | 60 | 101 | 4.0 | 9.0 | 0.00 | 0.00 | 0.00 | 72 | 1010.1 |
| 20260507190004 | 60 | 139 | 4.0 | 11.0 | 0.00 | 0.00 | 0.00 | 70 | 1010.0 |
| 20260507184503 | 61 | 100 | 4.0 | 8.0 | 0.00 | 0.00 | 0.00 | 69 | 1010.0 |
| 20260507183003 | 61 | 119 | 5.0 | 11.0 | 0.00 | 0.00 | 0.00 | 69 | 1010.0 |
| 20260507181503 | 62 | 113 | 4.0 | 11.0 | 0.00 | 0.00 | 0.00 | 67 | 1009.8 |
| 20260507180003 | 62 | 113 | 5.0 | 9.0 | 0.00 | 0.00 | 0.00 | 65 | 1009.5 |
| 20260507174503 | 63 | 124 | 6.0 | 11.0 | 0.00 | 0.00 | 0.00 | 64 | 1009.8 |
| 20260507173003 | 63 | 120 | 6.0 | 14.0 | 0.00 | 0.00 | 0.00 | 63 | 1009.5 |
| 20260507171503 | 63 | 150 | 5.0 | 11.0 | 0.00 | 0.00 | 0.00 | 63 | 1009.4 |
| 20260507170003 | 64 | 96 | 5.0 | 15.0 | 0.00 | 0.00 | 0.00 | 63 | 1009.7 |
| 20260507164503 | 66 | 113 | 5.0 | 14.0 | 0.00 | 0.00 | 0.00 | 60 | 1009.3 |
| 20260507163003 | 65 | 131 | 5.0 | 9.0 | 0.00 | 0.00 | 0.00 | 62 | 1009.3 |
| 20260507161503 | 67 | 125 | 5.0 | 16.0 | 0.00 | 0.00 | 0.00 | 57 | 1009.2 |
| 20260507160003 | 69 | 123 | 4.0 | 9.0 | 0.00 | 0.00 | 0.00 | 56 | 1009.2 |
| 20260507154503 | 67 | 114 | 4.0 | 13.0 | 0.00 | 0.00 | 0.00 | 58 | 1008.9 |
| 20260507153003 | 69 | 111 | 4.0 | 11.0 | 0.00 | 0.00 | 0.00 | 52 | 1009.2 |
| 20260507151503 | 69 | 129 | 4.0 | 11.0 | 0.00 | 0.00 | 0.00 | 55 | 1009.2 |
| 20260507150003 | 68 | 120 | 4.0 | 13.0 | 0.00 | 0.00 | 0.00 | 57 | 1009.5 |
| 20260507144503 | 68 | 123 | 4.0 | 8.0 | 0.00 | 0.00 | 0.00 | 57 | 1009.4 |
| 20260507143003 | 68 | 136 | 3.0 | 8.0 | 0.00 | 0.00 | 0.00 | 57 | 1009.8 |
| 20260507141503 | 67 | 129 | 4.0 | 11.0 | 0.00 | 0.00 | 0.00 | 56 | 1009.5 |
| 20260507140003 | 69 | 115 | 2.0 | 14.0 | 0.00 | 0.00 | 0.00 | 51 | 1009.8 |
| 20260507134503 | 69 | 140 | 3.0 | 11.0 | 0.00 | 0.00 | 0.00 | 50 | 1010.1 |
| 20260507133003 | 68 | 125 | 4.0 | 8.0 | 0.00 | 0.00 | 0.00 | 52 | 1010.1 |
| 20260507131503 | 69 | 78 | 1.0 | 6.0 | 0.00 | 0.00 | 0.00 | 51 | 1010.2 |
| 20260507130003 | 67 | 124 | 2.0 | 8.0 | 0.00 | 0.00 | 0.00 | 51 | 1010.1 |
| 20260507124503 | 67 | 113 | 3.0 | 8.0 | 0.00 | 0.00 | 0.00 | 53 | 1010.1 |
| 20260507123003 | 68 | 160 | 3.0 | 7.0 | 0.00 | 0.00 | 0.00 | 53 | 1010.4 |